Time,TemperatureF,DewpointF,PressureIn,WindDirection,WindDirectionDegrees,WindSpeedMPH,WindSpeedGustMPH,Humidity,HourlyPrecipIn,Conditions,Clouds,dailyrainin,SoftwareType,DateUTC
2013-01-26 00:01:00,17.8,6.6,30.05,NW,304,1.0,1.0,61,0.00,,,0.00,Wunderground v.1.15,2013-01-26 05:01:00,
2013-01-26 00:11:00,17.7,6.9,30.05,West,281,0.0,0.0,62,0.00,,,0.00,Wunderground v.1.15,2013-01-26 05:11:00,
2013-01-26 00:21:00,17.2,7.4,30.04,NNW,338,2.0,3.0,65,0.00,,,0.00,Wunderground v.1.15,2013-01-26 05:21:00,
2013-01-26 00:31:00,16.7,8.3,30.04,NNW,338,2.0,2.0,69,0.00,,,0.00,Wunderground v.1.15,2013-01-26 05:31:00,
2013-01-26 00:41:00,16.2,9.1,30.04,NNW,338,1.0,1.0,73,0.00,,,0.00,Wunderground v.1.15,2013-01-26 05:41:00,
2013-01-26 00:51:00,16.1,9.6,30.04,NW,320,0.0,1.0,75,0.00,,,0.00,Wunderground v.1.15,2013-01-26 05:51:00,
2013-01-26 01:01:00,15.7,9.5,30.04,WNW,284,1.0,1.0,76,0.00,,,0.00,Wunderground v.1.15,2013-01-26 06:01:00,
2013-01-26 01:10:00,15.6,9.4,30.04,WNW,293,1.0,1.0,76,0.00,,,0.00,Wunderground v.1.15,2013-01-26 06:10:00,
2013-01-26 01:21:00,15.6,9.7,30.02,NW,316,0.0,0.0,77,0.00,,,0.00,Wunderground v.1.15,2013-01-26 06:21:00,
2013-01-26 01:31:00,15.4,9.5,30.02,NW,316,0.0,0.0,77,0.00,,,0.00,Wunderground v.1.15,2013-01-26 06:31:00,
2013-01-26 01:41:00,15.2,9.3,30.02,North,4,0.0,0.0,77,0.00,,,0.00,Wunderground v.1.15,2013-01-26 06:41:00,
2013-01-26 01:51:00,15.1,9.5,30.02,North,0,0.0,0.0,78,0.00,,,0.00,Wunderground v.1.15,2013-01-26 06:51:00,
2013-01-26 02:01:00,14.8,9.2,30.02,North,0,0.0,0.0,78,0.00,,,0.00,Wunderground v.1.15,2013-01-26 07:01:00,
2013-01-26 02:11:00,14.4,9.1,30.02,North,0,0.0,0.0,79,0.00,,,0.00,Wunderground v.1.15,2013-01-26 07:11:00,
2013-01-26 02:21:00,14.3,9.0,30.02,North,0,0.0,0.0,79,0.00,,,0.00,Wunderground v.1.15,2013-01-26 07:21:00,
2013-01-26 02:31:00,14.0,8.7,30.01,North,0,0.0,0.0,79,0.00,,,0.00,Wunderground v.1.15,2013-01-26 07:31:00,
2013-01-26 02:41:00,13.8,8.8,30.01,North,0,0.0,0.0,80,0.00,,,0.00,Wunderground v.1.15,2013-01-26 07:41:00,
2013-01-26 02:51:00,13.5,8.5,30.00,North,0,0.0,0.0,80,0.00,,,0.00,Wunderground v.1.15,2013-01-26 07:51:00,
2013-01-26 03:00:00,13.3,8.3,30.00,North,0,0.0,0.0,80,0.00,,,0.00,Wunderground v.1.15,2013-01-26 08:00:00,
2013-01-26 03:11:00,12.9,8.2,30.00,North,0,0.0,0.0,81,0.00,,,0.00,Wunderground v.1.15,2013-01-26 08:11:00,
2013-01-26 03:21:00,12.8,8.1,29.99,North,0,0.0,0.0,81,0.00,,,0.00,Wunderground v.1.15,2013-01-26 08:21:00,
2013-01-26 03:31:00,12.4,8.0,29.99,North,0,0.0,0.0,82,0.00,,,0.00,Wunderground v.1.15,2013-01-26 08:31:00,
2013-01-26 03:41:00,12.1,7.7,29.99,North,0,0.0,0.0,82,0.00,,,0.00,Wunderground v.1.15,2013-01-26 08:41:00,
2013-01-26 03:51:00,11.7,7.3,29.99,North,0,0.0,0.0,82,0.00,,,0.00,Wunderground v.1.15,2013-01-26 08:51:00,
2013-01-26 04:01:00,11.4,7.0,29.99,North,0,0.0,0.0,82,0.00,,,0.00,Wunderground v.1.15,2013-01-26 09:01:00,
2013-01-26 04:11:00,11.2,6.8,29.99,NW,320,0.0,2.0,82,0.00,,,0.00,Wunderground v.1.15,2013-01-26 09:11:00,
2013-01-26 04:21:00,11.4,7.2,29.99,NW,321,1.0,1.0,83,0.00,,,0.00,Wunderground v.1.15,2013-01-26 09:21:00,
2013-01-26 04:31:00,11.2,7.0,29.99,NNW,330,0.0,1.0,83,0.00,,,0.00,Wunderground v.1.15,2013-01-26 09:31:00,
2013-01-26 04:41:00,11.4,7.2,29.99,North,352,1.0,1.0,83,0.00,,,0.00,Wunderground v.1.15,2013-01-26 09:41:00,
2013-01-26 04:50:00,11.4,7.0,29.99,WNW,294,0.0,1.0,82,0.00,,,0.00,Wunderground v.1.15,2013-01-26 09:50:00,
2013-01-26 05:01:00,11.4,7.0,29.98,North,0,0.0,0.0,82,0.00,,,0.00,Wunderground v.1.15,2013-01-26 10:01:00,
2013-01-26 05:10:00,11.4,6.7,29.98,North,352,0.0,0.0,81,0.00,,,0.00,Wunderground v.1.15,2013-01-26 10:10:00,
2013-01-26 05:21:00,11.2,6.5,29.98,WNW,289,0.0,2.0,81,0.00,,,0.00,Wunderground v.1.15,2013-01-26 10:21:00,
2013-01-26 05:31:00,11.1,6.1,29.99,WNW,286,0.0,0.0,80,0.00,,,0.00,Wunderground v.1.15,2013-01-26 10:31:00,
2013-01-26 05:41:00,10.9,5.9,29.99,NW,316,0.0,0.0,80,0.00,,,0.00,Wunderground v.1.15,2013-01-26 10:41:00,
2013-01-26 05:51:00,10.9,5.9,30.00,NW,319,0.0,0.0,80,0.00,,,0.00,Wunderground v.1.15,2013-01-26 10:51:00,
2013-01-26 06:01:00,10.9,5.9,30.00,NNW,330,0.0,0.0,80,0.00,,,0.00,Wunderground v.1.15,2013-01-26 11:01:00,
2013-01-26 06:10:00,10.9,5.7,30.00,NNW,335,1.0,2.0,79,0.00,,,0.00,Wunderground v.1.15,2013-01-26 11:10:00,
2013-01-26 06:21:00,10.9,5.7,30.01,NW,317,1.0,1.0,79,0.00,,,0.00,Wunderground v.1.15,2013-01-26 11:21:00,
2013-01-26 06:31:00,10.7,5.5,30.01,NW,321,1.0,1.0,79,0.00,,,0.00,Wunderground v.1.15,2013-01-26 11:31:00,
2013-01-26 06:40:00,10.5,5.3,30.01,WNW,300,1.0,1.0,79,0.00,,,0.00,Wunderground v.1.15,2013-01-26 11:40:00,
2013-01-26 06:51:00,10.4,5.2,30.02,West,280,1.0,1.0,79,0.00,,,0.00,Wunderground v.1.15,2013-01-26 11:51:00,
2013-01-26 07:01:00,10.2,5.0,30.02,NW,314,1.0,1.0,79,0.00,,,0.00,Wunderground v.1.15,2013-01-26 12:01:00,
2013-01-26 07:11:00,10.2,5.0,30.02,NW,309,1.0,1.0,79,0.00,,,0.00,Wunderground v.1.15,2013-01-26 12:11:00,
2013-01-26 07:21:00,10.4,4.9,30.02,WNW,299,1.0,1.0,78,0.00,,,0.00,Wunderground v.1.15,2013-01-26 12:21:00,
2013-01-26 07:31:00,10.4,4.6,30.03,NNW,329,1.0,1.0,77,0.00,,,0.00,Wunderground v.1.15,2013-01-26 12:31:00,
2013-01-26 07:41:00,10.7,4.6,30.04,NW,324,1.0,1.0,76,0.00,,,0.00,Wunderground v.1.15,2013-01-26 12:41:00,
2013-01-26 07:51:00,11.1,4.7,30.04,NNW,328,2.0,2.0,75,0.00,,,0.00,Wunderground v.1.15,2013-01-26 12:51:00,
2013-01-26 08:01:00,11.6,4.9,30.04,NW,307,1.0,1.0,74,0.00,,,0.00,Wunderground v.1.15,2013-01-26 13:01:00,
2013-01-26 08:11:00,12.1,4.8,30.04,North,358,2.0,5.0,72,0.00,,,0.00,Wunderground v.1.15,2013-01-26 13:11:00,
2013-01-26 08:21:00,12.6,4.3,30.04,NNW,333,2.0,4.0,69,0.00,,,0.00,Wunderground v.1.15,2013-01-26 13:21:00,
2013-01-26 08:31:00,13.3,4.7,30.04,NW,317,2.0,2.0,68,0.00,,,0.00,Wunderground v.1.15,2013-01-26 13:31:00,
2013-01-26 08:41:00,13.6,3.7,30.04,NW,314,3.0,3.0,64,0.00,,,0.00,Wunderground v.1.15,2013-01-26 13:41:00,
2013-01-26 08:51:00,14.3,4.3,30.04,NNW,343,3.0,6.0,64,0.00,,,0.00,Wunderground v.1.15,2013-01-26 13:51:00,
2013-01-26 09:01:00,14.8,3.8,30.04,NNE,22,3.0,3.0,61,0.00,,,0.00,Wunderground v.1.15,2013-01-26 14:01:00,
2013-01-26 09:11:00,15.2,3.8,30.05,NW,318,2.0,3.0,60,0.00,,,0.00,Wunderground v.1.15,2013-01-26 14:11:00,
2013-01-26 09:21:00,15.6,3.4,30.05,NW,322,2.0,2.0,58,0.00,,,0.00,Wunderground v.1.15,2013-01-26 14:21:00,
2013-01-26 09:30:00,16.1,3.5,30.06,NNW,346,3.0,3.0,57,0.00,,,0.00,Wunderground v.1.15,2013-01-26 14:30:00,
2013-01-26 09:41:00,16.9,4.3,30.06,NW,305,3.0,3.0,57,0.00,,,0.00,Wunderground v.1.15,2013-01-26 14:41:00,
2013-01-26 09:50:00,17.5,3.3,30.05,NW,308,3.0,3.0,53,0.00,,,0.00,Wunderground v.1.15,2013-01-26 14:50:00,
2013-01-26 10:01:00,17.8,3.5,30.05,WNW,297,3.0,3.0,53,0.00,,,0.00,Wunderground v.1.15,2013-01-26 15:01:00,
2013-01-26 10:11:00,18.3,1.9,30.05,NNE,15,3.0,5.0,48,0.00,,,0.00,Wunderground v.1.15,2013-01-26 15:11:00,
2013-01-26 10:21:00,19.2,3.1,30.05,NW,309,2.0,2.0,49,0.00,,,0.00,Wunderground v.1.15,2013-01-26 15:21:00,
2013-01-26 10:31:00,19.2,3.6,30.05,NNW,332,3.0,3.0,50,0.00,,,0.00,Wunderground v.1.15,2013-01-26 15:31:00,
2013-01-26 10:41:00,19.4,3.8,30.04,NW,318,2.0,2.0,50,0.00,,,0.00,Wunderground v.1.15,2013-01-26 15:41:00,
2013-01-26 10:51:00,19.4,3.3,30.04,WSW,240,3.0,3.0,49,0.00,,,0.00,Wunderground v.1.15,2013-01-26 15:51:00,
2013-01-26 11:01:00,20.5,4.8,30.04,North,351,2.0,3.0,50,0.00,,,0.00,Wunderground v.1.15,2013-01-26 16:01:00,
2013-01-26 11:11:00,21.3,4.6,30.04,North,0,2.0,2.0,48,0.00,,,0.00,Wunderground v.1.15,2013-01-26 16:11:00,
2013-01-26 11:21:00,20.5,3.0,30.04,North,355,4.0,4.0,46,0.00,,,0.00,Wunderground v.1.15,2013-01-26 16:21:00,
2013-01-26 11:31:00,20.5,3.0,30.04,NW,304,3.0,3.0,46,0.00,,,0.00,Wunderground v.1.15,2013-01-26 16:31:00,
2013-01-26 11:41:00,21.4,3.8,30.04,NW,312,2.0,4.0,46,0.00,,,0.00,Wunderground v.1.15,2013-01-26 16:41:00,
2013-01-26 11:50:00,21.8,4.2,30.03,WNW,291,3.0,7.0,46,0.00,,,0.00,Wunderground v.1.15,2013-01-26 16:50:00,
2013-01-26 12:01:00,21.8,3.2,30.02,NNE,19,3.0,5.0,44,0.00,,,0.00,Wunderground v.1.15,2013-01-26 17:01:00,
2013-01-26 12:11:00,22.2,3.1,30.02,NW,311,2.0,5.0,43,0.00,,,0.00,Wunderground v.1.15,2013-01-26 17:11:00,
2013-01-26 12:21:00,22.7,3.0,30.02,NW,321,2.0,2.0,42,0.00,,,0.00,Wunderground v.1.15,2013-01-26 17:21:00,
2013-01-26 12:31:00,23.3,2.0,30.01,West,278,3.0,4.0,39,0.00,,,0.00,Wunderground v.1.15,2013-01-26 17:31:00,
2013-01-26 12:41:00,23.2,1.9,30.01,WNW,302,4.0,4.0,39,0.00,,,0.00,Wunderground v.1.15,2013-01-26 17:41:00,
2013-01-26 12:51:00,23.0,1.1,30.01,NW,315,4.0,4.0,38,0.00,,,0.00,Wunderground v.1.15,2013-01-26 17:51:00,
2013-01-26 13:01:00,22.9,-3.3,30.01,North,355,4.0,4.0,31,0.00,,,0.00,Wunderground v.1.15,2013-01-26 18:01:00,
2013-01-26 13:10:00,23.6,-1.3,30.01,NNE,28,3.0,3.0,33,0.00,,,0.00,Wunderground v.1.15,2013-01-26 18:10:00,
2013-01-26 13:21:00,23.6,-1.3,30.00,WNW,295,3.0,3.0,33,0.00,,,0.00,Wunderground v.1.15,2013-01-26 18:21:00,
2013-01-26 13:30:00,24.1,-0.9,30.00,WNW,287,2.0,2.0,33,0.00,,,0.00,Wunderground v.1.15,2013-01-26 18:30:00,
2013-01-26 13:41:00,23.6,-2.7,30.00,WNW,300,3.0,3.0,31,0.00,,,0.00,Wunderground v.1.15,2013-01-26 18:41:00,
2013-01-26 13:51:00,23.5,-3.4,30.01,West,271,3.0,3.0,30,0.00,,,0.00,Wunderground v.1.15,2013-01-26 18:51:00,
2013-01-26 14:01:00,23.3,-2.9,30.01,NW,307,3.0,3.0,31,0.00,,,0.00,Wunderground v.1.15,2013-01-26 19:01:00,
2013-01-26 14:11:00,23.5,-3.4,30.01,NNW,335,3.0,5.0,30,0.00,,,0.00,Wunderground v.1.15,2013-01-26 19:11:00,
2013-01-26 14:21:00,23.8,-4.6,30.01,NW,307,3.0,3.0,28,0.00,,,0.00,Wunderground v.1.15,2013-01-26 19:21:00,
2013-01-26 14:31:00,23.9,-4.5,30.02,WNW,302,3.0,3.0,28,0.00,,,0.00,Wunderground v.1.15,2013-01-26 19:31:00,
2013-01-26 14:40:00,23.8,-6.2,30.02,WNW,296,3.0,3.0,26,0.00,,,0.00,Wunderground v.1.15,2013-01-26 19:40:00,
2013-01-26 14:51:00,23.9,-5.3,30.02,West,274,3.0,4.0,27,0.00,,,0.00,Wunderground v.1.15,2013-01-26 19:51:00,
2013-01-26 15:01:00,23.5,-6.4,30.02,WNW,282,2.0,2.0,26,0.00,,,0.00,Wunderground v.1.15,2013-01-26 20:01:00,
2013-01-26 15:11:00,22.9,-6.2,30.02,NW,314,4.0,6.0,27,0.00,,,0.00,Wunderground v.1.15,2013-01-26 20:11:00,
2013-01-26 15:21:00,22.9,-6.2,30.04,WNW,293,4.0,4.0,27,0.00,,,0.00,Wunderground v.1.15,2013-01-26 20:21:00,
2013-01-26 15:31:00,23.0,-5.3,30.04,NW,314,3.0,6.0,28,0.00,,,0.00,Wunderground v.1.15,2013-01-26 20:31:00,
2013-01-26 15:41:00,22.5,-5.8,30.05,NW,307,3.0,3.0,28,0.00,,,0.00,Wunderground v.1.15,2013-01-26 20:41:00,
2013-01-26 15:51:00,22.1,-6.9,30.05,West,280,3.0,4.0,27,0.00,,,0.00,Wunderground v.1.15,2013-01-26 20:51:00,
2013-01-26 16:01:00,21.6,-6.5,30.06,North,358,4.0,4.0,28,0.00,,,0.00,Wunderground v.1.15,2013-01-26 21:01:00,
2013-01-26 16:11:00,21.1,-4.9,30.06,NW,321,4.0,4.0,31,0.00,,,0.00,Wunderground v.1.15,2013-01-26 21:11:00,
2013-01-26 16:21:00,21.1,-6.3,30.07,WNW,298,3.0,4.0,29,0.00,,,0.00,Wunderground v.1.15,2013-01-26 21:21:00,
2013-01-26 16:31:00,21.0,-7.1,30.07,NW,314,3.0,5.0,28,0.00,,,0.00,Wunderground v.1.15,2013-01-26 21:31:00,
2013-01-26 16:40:00,20.6,-7.4,30.07,NW,316,3.0,5.0,28,0.00,,,0.00,Wunderground v.1.15,2013-01-26 21:40:00,
2013-01-26 16:51:00,20.3,-7.7,30.08,NW,304,4.0,4.0,28,0.00,,,0.00,Wunderground v.1.15,2013-01-26 21:51:00,
2013-01-26 17:01:00,20.0,-7.9,30.08,WNW,299,4.0,4.0,28,0.00,,,0.00,Wunderground v.1.15,2013-01-26 22:01:00,
2013-01-26 17:11:00,20.0,-7.9,30.08,WNW,291,3.0,3.0,28,0.00,,,0.00,Wunderground v.1.15,2013-01-26 22:11:00,
2013-01-26 17:20:00,19.9,-8.8,30.09,NW,307,3.0,6.0,27,0.00,,,0.00,Wunderground v.1.15,2013-01-26 22:20:00,
2013-01-26 17:31:00,19.7,-7.5,30.09,NW,318,2.0,2.0,29,0.00,,,0.00,Wunderground v.1.15,2013-01-26 22:31:00,
2013-01-26 17:40:00,19.7,-8.9,30.09,WNW,297,3.0,3.0,27,0.00,,,0.00,Wunderground v.1.15,2013-01-26 22:40:00,
2013-01-26 17:51:00,19.4,-8.5,30.10,NW,318,3.0,4.0,28,0.00,,,0.00,Wunderground v.1.15,2013-01-26 22:51:00,
2013-01-26 18:00:00,19.1,-8.7,30.10,NW,316,5.0,5.0,28,0.00,,,0.00,Wunderground v.1.15,2013-01-26 23:00:00,
2013-01-26 18:11:00,18.8,-9.0,30.10,NNW,342,3.0,5.0,28,0.00,,,0.00,Wunderground v.1.15,2013-01-26 23:11:00,
2013-01-26 18:21:00,18.6,-9.9,30.12,West,268,4.0,4.0,27,0.00,,,0.00,Wunderground v.1.15,2013-01-26 23:21:00,
2013-01-26 18:31:00,18.6,-9.2,30.12,WNW,285,3.0,3.0,28,0.00,,,0.00,Wunderground v.1.15,2013-01-26 23:31:00,
2013-01-26 18:41:00,18.6,-9.9,30.12,NNE,20,3.0,3.0,27,0.00,,,0.00,Wunderground v.1.15,2013-01-26 23:41:00,
2013-01-26 18:51:00,18.4,-9.3,30.13,NW,316,3.0,3.0,28,0.00,,,0.00,Wunderground v.1.15,2013-01-26 23:51:00,
2013-01-26 19:01:00,18.0,-10.4,30.13,WNW,298,4.0,4.0,27,0.00,,,0.00,Wunderground v.1.15,2013-01-27 00:01:00,
2013-01-26 19:11:00,17.5,-10.9,30.13,NE,42,4.0,4.0,27,0.00,,,0.00,Wunderground v.1.15,2013-01-27 00:11:00,
2013-01-26 19:21:00,17.2,-10.4,30.13,NNW,336,4.0,4.0,28,0.00,,,0.00,Wunderground v.1.15,2013-01-27 00:21:00,
2013-01-26 19:31:00,17.0,-10.6,30.14,SSE,165,4.0,4.0,28,0.00,,,0.00,Wunderground v.1.15,2013-01-27 00:31:00,
2013-01-26 19:41:00,16.7,-11.6,30.14,NW,314,3.0,4.0,27,0.00,,,0.00,Wunderground v.1.15,2013-01-27 00:41:00,
2013-01-26 19:51:00,16.4,-9.0,30.15,NW,311,3.0,3.0,31,0.00,,,0.00,Wunderground v.1.15,2013-01-27 00:51:00,
2013-01-26 20:01:00,16.2,-8.5,30.15,NW,304,3.0,3.0,32,0.00,,,0.00,Wunderground v.1.15,2013-01-27 01:01:00,
2013-01-26 20:11:00,15.7,-8.4,30.15,West,274,2.0,2.0,33,0.00,,,0.00,Wunderground v.1.15,2013-01-27 01:11:00,
2013-01-26 20:21:00,15.7,-7.2,30.15,North,358,4.0,6.0,35,0.00,,,0.00,Wunderground v.1.15,2013-01-27 01:21:00,
2013-01-26 20:31:00,15.6,-6.7,30.16,NNE,25,3.0,3.0,36,0.00,,,0.00,Wunderground v.1.15,2013-01-27 01:31:00,
2013-01-26 20:41:00,15.2,-5.4,30.16,West,268,3.0,3.0,39,0.00,,,0.00,Wunderground v.1.15,2013-01-27 01:41:00,
2013-01-26 20:51:00,14.9,-5.1,30.17,NNW,347,2.0,2.0,40,0.00,,,0.00,Wunderground v.1.15,2013-01-27 01:51:00,
2013-01-26 21:01:00,14.9,-4.1,30.17,NW,304,2.0,2.0,42,0.00,,,0.00,Wunderground v.1.15,2013-01-27 02:01:00,
2013-01-26 21:11:00,14.8,-3.2,30.17,WNW,291,4.0,4.0,44,0.00,,,0.00,Wunderground v.1.15,2013-01-27 02:11:00,
2013-01-26 21:21:00,14.6,-2.9,30.17,NW,309,4.0,4.0,45,0.00,,,0.00,Wunderground v.1.15,2013-01-27 02:21:00,
2013-01-26 21:31:00,14.4,-3.1,30.17,WSW,243,3.0,9.0,45,0.00,,,0.00,Wunderground v.1.15,2013-01-27 02:31:00,
2013-01-26 21:41:00,14.3,-2.3,30.17,NW,314,2.0,2.0,47,0.00,,,0.00,Wunderground v.1.15,2013-01-27 02:41:00,
2013-01-26 21:51:00,14.0,-2.1,30.17,WNW,297,2.0,4.0,48,0.00,,,0.00,Wunderground v.1.15,2013-01-27 02:51:00,
2013-01-26 22:01:00,14.1,-2.0,30.18,SSW,192,3.0,3.0,48,0.00,,,0.00,Wunderground v.1.15,2013-01-27 03:01:00,
2013-01-26 22:11:00,14.3,-1.8,30.18,NW,316,3.0,3.0,48,0.00,,,0.00,Wunderground v.1.15,2013-01-27 03:11:00,
2013-01-26 22:21:00,14.3,-1.4,30.18,WNW,297,3.0,3.0,49,0.00,,,0.00,Wunderground v.1.15,2013-01-27 03:21:00,
2013-01-26 22:31:00,14.3,-1.4,30.18,WNW,301,3.0,3.0,49,0.00,,,0.00,Wunderground v.1.15,2013-01-27 03:31:00,
2013-01-26 22:41:00,14.0,-1.3,30.18,WNW,294,2.0,2.0,50,0.00,,,0.00,Wunderground v.1.15,2013-01-27 03:41:00,
2013-01-26 22:50:00,14.0,-0.8,30.18,NW,311,3.0,5.0,51,0.00,,,0.00,Wunderground v.1.15,2013-01-27 03:50:00,
2013-01-26 23:01:00,14.0,-0.8,30.18,North,0,3.0,4.0,51,0.00,,,0.00,Wunderground v.1.15,2013-01-27 04:01:00,
2013-01-26 23:10:00,14.1,-0.3,30.18,WNW,295,3.0,3.0,52,0.00,,,0.00,Wunderground v.1.15,2013-01-27 04:10:00,
2013-01-26 23:21:00,14.3,-0.6,30.18,WNW,296,3.0,3.0,51,0.00,,,0.00,Wunderground v.1.15,2013-01-27 04:21:00,
2013-01-26 23:31:00,14.3,-0.1,30.19,WNW,303,4.0,4.0,52,0.00,,,0.00,Wunderground v.1.15,2013-01-27 04:31:00,
2013-01-26 23:41:00,14.3,-0.1,30.19,NW,318,4.0,4.0,52,0.00,,,0.00,Wunderground v.1.15,2013-01-27 04:41:00,
2013-01-26 23:51:00,14.3,-0.1,30.19,North,358,3.0,3.0,52,0.00,,,0.00,Wunderground v.1.15,2013-01-27 04:51:00,